Time;durP1;ratioP1;P1;durP2;ratioP2;P2;SDS_P1;SDS_P2;PMS_P1;PMS_P2;Temp;Humidity;BMP_temperature;BMP_pressure;BME280_temperature;BME280_humidity;BME280_pressure;Samples;Min_cycle;Max_cycle;Signal;HPM_P1;HPM_P2
2020/12/01 00:01:53;;;;;;;40.07;33.90;;;;;;;1.32;65.32;98128.34;8418096;28;20632;-89
2020/12/01 00:05:55;;;;;;;40.17;35.77;;;;;;;1.63;64.43;98126.44;8408494;28;20229;-91
2020/12/01 00:09:57;;;;;;;38.03;33.80;;;;;;;1.59;64.68;98118.84;8426366;28;20622;-88
2020/12/01 00:14:02;;;;;;;37.50;33.70;;;;;;;1.50;64.88;98117.16;8411794;28;20227;-89
2020/12/01 00:18:06;;;;;;;36.77;32.97;;;;;;;1.25;66.39;98103.69;8416525;28;20347;-89
2020/12/01 00:22:08;;;;;;;35.07;31.40;;;;;;;1.45;65.58;98113.81;8427142;28;20247;-87
2020/12/01 00:26:10;;;;;;;34.47;30.87;;;;;;;1.33;65.90;98104.50;8402119;28;20558;-86
2020/12/01 00:30:14;;;;;;;35.00;31.30;;;;;;;1.50;66.08;98089.09;8436983;28;20232;-87
2020/12/01 00:34:18;;;;;;;33.40;29.90;;;;;;;1.38;66.17;98069.59;8465447;28;20226;-87
2020/12/01 00:38:26;;;;;;;37.07;31.27;;;;;;;1.04;67.70;98074.88;8433648;28;20248;-87
2020/12/01 00:42:28;;;;;;;35.27;31.57;;;;;;;1.33;67.31;98078.97;8432549;28;20306;-87
2020/12/01 00:46:31;;;;;;;35.43;31.73;;;;;;;1.27;67.62;98067.09;8433078;28;20248;-87
2020/12/01 00:50:33;;;;;;;35.50;31.90;;;;;;;1.17;67.75;98065.47;8411917;28;20207;-87
2020/12/01 00:54:36;;;;;;;34.67;30.97;;;;;;;1.22;68.06;98050.13;8399054;28;20227;-87
2020/12/01 00:58:38;;;;;;;34.53;30.87;;;;;;;1.19;67.87;98055.25;8397495;28;20308;-87
2020/12/01 01:02:41;;;;;;;35.70;31.97;;;;;;;1.26;68.00;98034.81;8407946;28;20218;-87
2020/12/01 01:06:48;;;;;;;34.97;31.20;;;;;;;1.08;68.59;98022.16;8430511;28;20195;-87
2020/12/01 01:10:53;;;;;;;35.87;32.07;;;;;;;1.09;68.33;98032.34;8430766;28;20205;-87
2020/12/01 01:14:56;;;;;;;36.17;32.37;;;;;;;1.15;68.63;98024.66;8431763;28;20709;-87
2020/12/01 01:18:58;;;;;;;36.47;32.47;;;;;;;1.20;68.79;98017.00;8431761;28;20226;-87
2020/12/01 01:23:02;;;;;;;35.10;31.30;;;;;;;1.24;68.35;98010.13;8365303;28;20687;-87
2020/12/01 01:27:04;;;;;;;36.80;32.63;;;;;;;1.05;69.56;98000.06;8383807;28;20225;-87
2020/12/01 01:31:06;;;;;;;33.97;30.33;;;;;;;1.22;68.79;98005.06;8399307;28;20202;-87
2020/12/01 01:35:08;;;;;;;35.17;31.37;;;;;;;1.32;68.62;98004.16;8374225;28;20306;-87
2020/12/01 01:39:11;;;;;;;34.20;30.60;;;;;;;1.53;67.78;97985.28;8365980;28;20227;-87
2020/12/01 01:43:13;;;;;;;32.83;29.43;;;;;;;1.59;67.78;97989.47;8395880;28;20233;-87
2020/12/01 01:47:24;;;;;;;34.60;30.93;;;;;;;1.59;68.25;97992.03;8398422;28;20626;-86
2020/12/01 01:51:27;;;;;;;34.10;30.47;;;;;;;1.82;67.14;97989.28;8404733;28;20783;-86
2020/12/01 01:55:30;;;;;;;32.57;28.60;;;;;;;1.90;67.11;97982.38;8418592;28;20305;-86
2020/12/01 01:59:32;;;;;;;34.93;31.10;;;;;;;1.69;67.63;97967.28;8379753;28;20694;-87
2020/12/01 02:03:36;;;;;;;32.80;29.40;;;;;;;1.76;67.24;97966.38;8366046;28;20574;-86
2020/12/01 02:07:40;;;;;;;34.77;30.73;;;;;;;1.91;67.05;97966.22;8363417;28;20238;-87
2020/12/01 02:11:45;;;;;;;34.47;30.40;;;;;;;2.27;66.46;97983.75;8363724;28;20610;-87
2020/12/01 02:15:48;;;;;;;34.20;30.60;;;;;;;2.37;65.95;97971.72;8369656;28;20230;-87
2020/12/01 02:19:53;;;;;;;33.43;29.57;;;;;;;2.48;65.64;97962.22;8371437;28;20231;-86
2020/12/01 02:23:57;;;;;;;34.87;31.17;;;;;;;2.46;65.65;97943.50;8373360;28;20742;-87
2020/12/01 02:28:02;;;;;;;33.73;30.13;;;;;;;2.53;65.63;97945.94;8369659;28;20176;-87
2020/12/01 02:32:05;;;;;;;34.60;30.80;;;;;;;2.37;65.73;97929.09;8370610;28;20263;-87
2020/12/01 02:36:07;;;;;;;33.63;29.87;;;;;;;2.48;66.19;97926.41;8370069;28;20188;-87
2020/12/01 02:40:10;;;;;;;35.73;30.47;;;;;;;2.32;66.66;97908.72;8369364;28;20227;-88
2020/12/01 02:44:14;;;;;;;33.60;30.00;;;;;;;2.26;67.07;97895.16;8369212;28;20250;-87
2020/12/01 02:48:18;;;;;;;35.10;30.80;;;;;;;2.13;67.52;97897.88;8372108;28;20202;-86
2020/12/01 02:52:20;;;;;;;35.47;31.57;;;;;;;1.97;67.83;97890.41;8374320;28;20215;-87
2020/12/01 02:56:25;;;;;;;34.57;30.77;;;;;;;2.06;67.61;97868.16;8369804;28;20184;-87
2020/12/01 03:00:29;;;;;;;33.87;29.67;;;;;;;2.00;67.96;97875.88;8399894;28;20329;-87
2020/12/01 03:04:32;;;;;;;36.57;32.37;;;;;;;1.73;68.77;97861.69;8401922;28;20231;-87
2020/12/01 03:08:34;;;;;;;34.87;31.17;;;;;;;1.64;69.53;97856.69;8401532;28;20231;-87
2020/12/01 03:12:36;;;;;;;33.60;29.97;;;;;;;1.44;69.90;97851.78;8403171;28;20226;-86
2020/12/01 03:16:42;;;;;;;34.33;30.47;;;;;;;1.52;69.42;97838.09;8392246;28;20256;-87
2020/12/01 03:20:45;;;;;;;34.67;30.87;;;;;;;1.60;69.76;97835.47;8401057;28;20325;-87
2020/12/01 03:24:49;;;;;;;34.67;30.93;;;;;;;1.49;70.00;97837.28;8400029;28;20247;-86
2020/12/01 03:28:52;;;;;;;33.67;30.03;;;;;;;1.44;69.78;97844.13;8400664;28;20241;-87
2020/12/01 03:32:57;;;;;;;36.37;31.70;;;;;;;1.25;70.67;97833.25;8400640;28;20226;-87
2020/12/01 03:36:58;;;;;;;36.13;32.30;;;;;;;1.46;70.08;97822.84;8400517;28;20225;-87
2020/12/01 03:41:01;;;;;;;35.93;32.03;;;;;;;1.40;70.72;97827.16;8400023;28;20230;-87
2020/12/01 03:45:03;;;;;;;35.53;30.40;;;;;;;1.44;70.26;97824.56;8399931;28;20222;-87
2020/12/01 03:49:06;;;;;;;33.73;29.77;;;;;;;1.64;69.94;97824.38;8400584;28;20222;-86
2020/12/01 03:53:11;;;;;;;36.13;31.53;;;;;;;1.55;70.10;97824.47;8400733;28;20696;-87
2020/12/01 03:57:12;;;;;;;36.07;32.13;;;;;;;1.48;70.25;97804.97;8403662;28;20539;-87
2020/12/01 04:01:15;;;;;;;36.33;31.43;;;;;;;1.51;70.42;97807.50;8428798;28;20288;-87
2020/12/01 04:05:20;;;;;;;33.73;29.33;;;;;;;1.58;70.49;97808.25;8399519;28;20596;-87
2020/12/01 04:09:23;;;;;;;35.10;31.30;;;;;;;1.70;70.00;97810.69;8399490;28;20188;-87
2020/12/01 04:13:27;;;;;;;38.37;32.30;;;;;;;1.60;70.07;97778.44;8399374;28;20231;-87
2020/12/01 04:17:30;;;;;;;38.53;32.70;;;;;;;1.55;70.23;97781.91;8399579;28;20200;-87
2020/12/01 04:21:33;;;;;;;35.90;31.77;;;;;;;1.56;71.18;97786.16;8398091;28;20246;-87
2020/12/01 04:25:35;;;;;;;38.97;33.40;;;;;;;1.35;71.01;97788.91;8401804;28;20311;-87
2020/12/01 04:29:38;;;;;;;37.43;31.07;;;;;;;1.66;70.99;97784.34;8399197;28;20207;-87
2020/12/01 04:33:40;;;;;;;36.20;32.00;;;;;;;1.67;70.04;97785.19;8403615;28;20226;-85
2020/12/01 04:37:44;;;;;;;35.53;31.17;;;;;;;1.57;70.90;97776.78;8427079;28;20272;-87
2020/12/01 04:41:48;;;;;;;34.97;31.17;;;;;;;1.44;70.89;97776.06;8397173;28;20237;-87
2020/12/01 04:45:51;;;;;;;36.23;31.43;;;;;;;1.84;69.43;97783.25;8399009;28;20231;-86
2020/12/01 04:49:57;;;;;;;36.97;31.43;;;;;;;2.03;69.25;97786.44;8398772;28;20707;-87
2020/12/01 04:54:22;;;;;;;35.73;31.43;;;;;;;2.06;68.70;97775.34;8398739;28;20440;-86
2020/12/01 04:58:56;;;;;;;35.40;31.60;;;;;;;2.18;68.31;97789.66;8397779;28;20226;-87
2020/12/01 05:03:22;;;;;;;34.13;30.43;;;;;;;2.38;67.80;97781.69;8397903;28;20626;-87
2020/12/01 05:07:40;;;;;;;37.63;32.33;;;;;;;1.75;69.15;97766.38;8397839;28;20286;-87
2020/12/01 05:11:49;;;;;;;33.77;30.07;;;;;;;1.97;69.69;97767.81;8398271;28;20207;-86
2020/12/01 05:15:56;;;;;;;38.53;32.13;;;;;;;1.58;71.15;97744.44;8397597;28;20223;-87
2020/12/01 05:19:59;;;;;;;34.97;31.03;;;;;;;1.76;70.60;97747.63;8397424;28;20242;-87
2020/12/01 05:24:02;;;;;;;35.13;31.30;;;;;;;1.87;70.32;97754.31;8397268;28;20223;-87
2020/12/01 05:28:11;;;;;;;35.40;31.00;;;;;;;2.06;69.05;97737.03;8398273;28;20642;-86
2020/12/01 05:32:23;;;;;;;38.23;33.10;;;;;;;1.53;70.92;97747.06;8398149;28;20199;-86
2020/12/01 05:36:30;;;;;;;34.73;30.93;;;;;;;1.94;70.01;97745.69;8397409;28;20210;-87
2020/12/01 05:40:34;;;;;;;36.67;31.73;;;;;;;1.94;70.39;97751.66;8398232;28;20304;-85
2020/12/01 05:44:37;;;;;;;40.13;33.17;;;;;;;1.47;71.40;97731.81;8398408;28;20230;-86
2020/12/01 05:48:54;;;;;;;35.87;31.97;;;;;;;1.88;70.02;97746.59;8396052;28;20260;-86
2020/12/01 05:53:04;;;;;;;37.47;33.10;;;;;;;1.35;72.11;97758.31;8396572;28;20227;-86
2020/12/01 05:57:17;;;;;;;35.13;31.27;;;;;;;2.04;70.42;97754.09;8406373;28;20235;-85
2020/12/01 06:01:45;;;;;;;38.57;34.00;;;;;;;1.68;71.38;97754.53;8432692;27;20588;-85
2020/12/01 06:05:50;;;;;;;37.43;33.37;;;;;;;1.93;70.96;97747.41;8399283;28;20253;-85
2020/12/01 06:10:29;;;;;;;35.53;31.63;;;;;;;1.77;71.27;97756.09;8377907;28;20206;-86
2020/12/01 06:14:36;;;;;;;38.33;32.03;;;;;;;1.87;72.62;97749.19;8363565;28;20223;-85
2020/12/01 06:18:48;;;;;;;37.87;33.40;;;;;;;1.59;72.22;97744.44;8359161;28;20228;-86
2020/12/01 06:23:33;;;;;;;35.90;31.17;;;;;;;2.09;70.41;97739.53;8358966;28;20364;-86
2020/12/01 06:28:26;;;;;;;37.90;31.87;;;;;;;2.21;69.60;97741.06;8350626;28;20208;-86
2020/12/01 06:33:03;;;;;;;37.73;32.13;;;;;;;2.28;69.90;97738.38;8304264;28;20227;-85
2020/12/01 06:37:33;;;;;;;34.03;30.33;;;;;;;1.99;70.56;97749.03;8369881;28;20210;-86
2020/12/01 06:41:38;;;;;;;37.57;32.67;;;;;;;2.31;69.78;97735.78;8389963;28;20195;-85
2020/12/01 06:45:43;;;;;;;39.10;34.00;;;;;;;2.03;70.71;97734.50;8372816;28;20230;-86
2020/12/01 06:49:46;;;;;;;39.63;34.20;;;;;;;1.88;71.22;97741.50;8374986;28;20550;-85
2020/12/01 06:53:50;;;;;;;39.60;33.57;;;;;;;1.75;72.24;97745.06;8371500;28;20246;-85
2020/12/01 06:57:52;;;;;;;34.10;30.43;;;;;;;2.18;70.84;97741.94;8375950;28;20238;-86
2020/12/01 07:02:05;;;;;;;36.80;32.33;;;;;;;2.20;71.14;97750.44;8367790;28;20677;-86
2020/12/01 07:06:17;;;;;;;37.30;32.50;;;;;;;2.30;69.98;97741.78;8373252;28;20223;-85
2020/12/01 07:10:26;;;;;;;36.43;32.20;;;;;;;2.24;70.51;97739.31;8369445;28;20208;-86
2020/12/01 07:14:37;;;;;;;40.00;34.67;;;;;;;2.35;69.73;97740.00;8347722;28;20294;-85
2020/12/01 07:18:46;;;;;;;41.63;34.47;;;;;;;2.19;70.70;97727.47;8357061;28;20220;-84
2020/12/01 07:22:54;;;;;;;37.63;33.53;;;;;;;2.18;70.78;97724.06;8349771;28;20233;-86
2020/12/01 07:27:07;;;;;;;40.47;34.37;;;;;;;2.56;69.72;97734.59;8336316;28;20204;-85
2020/12/01 07:31:20;;;;;;;41.67;36.33;;;;;;;2.60;69.13;97737.06;8336842;28;20330;-85
2020/12/01 07:35:32;;;;;;;41.00;34.00;;;;;;;2.66;69.43;97731.00;8364166;28;20608;-84
2020/12/01 07:39:34;;;;;;;51.33;39.97;;;;;;;2.33;69.45;97723.84;8368404;28;20227;-85
2020/12/01 07:43:37;;;;;;;46.50;38.17;;;;;;;2.54;69.93;97727.75;8335595;28;20224;-85
2020/12/01 07:47:40;;;;;;;43.67;36.57;;;;;;;2.77;69.13;97730.81;8354968;28;20283;-85
2020/12/01 07:51:43;;;;;;;44.13;37.10;;;;;;;2.72;69.02;97728.31;8336138;28;20216;-86
2020/12/01 07:55:49;;;;;;;42.90;37.40;;;;;;;2.83;68.66;97729.00;8340132;28;20628;-85
2020/12/01 07:59:53;;;;;;;44.60;39.63;;;;;;;2.51;69.75;97729.53;8366264;28;20296;-85
2020/12/01 08:04:05;;;;;;;45.20;40.17;;;;;;;2.61;69.34;97723.41;8359382;28;20669;-86
2020/12/01 08:08:15;;;;;;;53.87;44.93;;;;;;;2.50;70.22;97731.25;8345897;28;20269;-85
2020/12/01 08:12:18;;;;;;;43.77;38.07;;;;;;;2.83;69.05;97735.84;8342312;28;20207;-85
2020/12/01 08:16:24;;;;;;;47.73;40.57;;;;;;;2.50;69.52;97733.81;8351552;28;20642;-85
2020/12/01 08:20:26;;;;;;;41.40;36.87;;;;;;;2.84;69.34;97728.13;8366827;28;20315;-85
2020/12/01 08:24:30;;;;;;;41.10;36.60;;;;;;;3.22;67.97;97723.19;8366081;28;20243;-85
2020/12/01 08:28:37;;;;;;;40.17;34.90;;;;;;;3.46;67.14;97740.63;8367148;28;20203;-84
2020/12/01 08:32:43;;;;;;;42.40;37.50;;;;;;;3.18;67.58;97736.91;8363554;28;20338;-87
2020/12/01 08:36:51;;;;;;;45.97;39.40;;;;;;;2.93;68.29;97727.97;8349135;28;20246;-87
2020/12/01 08:41:02;;;;;;;45.33;39.30;;;;;;;3.11;68.27;97738.75;8382589;28;20261;-87
2020/12/01 08:45:26;;;;;;;49.63;41.47;;;;;;;3.27;67.69;97744.44;8357705;28;20224;-84
2020/12/01 08:49:41;;;;;;;42.83;36.33;;;;;;;2.87;68.82;97733.19;8348471;28;20228;-85
2020/12/01 08:53:46;;;;;;;46.57;38.87;;;;;;;3.05;68.53;97741.44;8332912;28;20270;-85
2020/12/01 08:57:53;;;;;;;41.33;36.73;;;;;;;3.05;68.70;97738.88;8333881;28;20220;-85
2020/12/01 09:02:01;;;;;;;44.60;38.13;;;;;;;3.19;68.25;97736.06;8334625;28;20306;-86
2020/12/01 09:06:05;;;;;;;42.60;37.50;;;;;;;3.24;68.18;97747.06;8332733;28;20307;-91
2020/12/01 09:10:28;;;;;;;40.27;35.87;;;;;;;3.40;67.34;97743.31;8348176;28;20196;-91
2020/12/01 09:19:25;;;;;;;38.10;34.03;;;;;;;3.63;66.49;97752.28;8348920;28;20235;-88
2020/12/01 09:23:35;;;;;;;46.00;36.20;;;;;;;3.37;67.71;97756.19;8350085;28;20255;-88
2020/12/01 09:27:50;;;;;;;40.57;36.20;;;;;;;3.22;68.25;97747.09;8348755;28;20200;-89
2020/12/01 09:31:53;;;;;;;38.93;34.67;;;;;;;3.63;67.08;97758.22;8347635;28;20257;-88
2020/12/01 09:35:55;;;;;;;38.40;29.57;;;;;;;6.24;85.20;97756.06;8330100;28;20366;-80
2020/12/01 09:39:58;;;;;;;34.10;28.63;;;;;;;7.40;62.37;97745.41;8328575;28;20319;-79
2020/12/01 09:44:04;;;;;;;34.10;30.00;;;;;;;6.85;58.28;97743.00;8338157;28;20219;-85
2020/12/01 09:48:12;;;;;;;34.37;30.63;;;;;;;6.45;58.46;97739.13;8339507;28;20315;-81
2020/12/01 09:52:17;;;;;;;35.97;32.13;;;;;;;5.51;60.43;97755.56;8338848;28;20213;-78
2020/12/01 09:56:38;;;;;;;39.47;34.47;;;;;;;5.60;60.74;97753.59;8329751;28;20220;-79
2020/12/01 10:09:36;;;;;;;36.17;32.17;;;;;;;4.66;63.40;97747.44;8356458;28;20262;-90
2020/12/01 10:13:54;;;;;;;35.90;32.17;;;;;;;4.79;63.12;97751.41;8373776;28;20262;-90
2020/12/01 10:27:28;;;;;;;35.80;32.10;;;;;;;5.03;61.81;97736.28;8363427;28;20250;-93
2020/12/01 10:36:03;;;;;;;37.53;32.57;;;;;;;5.05;61.91;97748.19;8392543;28;20246;-90
2020/12/01 10:40:06;;;;;;;36.10;32.30;;;;;;;4.65;63.88;97738.91;8400577;28;20232;-91
2020/12/01 10:44:21;;;;;;;39.90;35.40;;;;;;;4.55;63.62;97736.59;8382675;28;20230;-94
2020/12/01 10:48:30;;;;;;;38.63;34.40;;;;;;;4.79;63.90;97742.88;8389746;28;20204;-93
2020/12/01 10:52:37;;;;;;;39.80;35.57;;;;;;;4.62;64.11;97744.09;8374621;28;20319;-95
2020/12/01 10:57:05;;;;;;;37.10;33.03;;;;;;;5.16;62.87;97754.75;8358532;28;20197;-93
2020/12/01 11:01:14;;;;;;;40.23;35.93;;;;;;;5.06;62.50;97734.50;8369878;28;20242;-92
2020/12/01 11:05:22;;;;;;;36.90;32.90;;;;;;;5.45;61.49;97744.56;8382250;28;20234;-93
2020/12/01 11:15:02;;;;;;;40.87;35.80;;;;;;;5.15;62.92;97743.66;8361143;28;20239;-92
2020/12/01 11:19:08;;;;;;;38.30;34.17;;;;;;;4.80;63.89;97742.84;8380433;28;20279;-90
2020/12/01 11:23:16;;;;;;;42.67;35.47;;;;;;;4.64;64.46;97741.50;8351055;28;20258;-93
2020/12/01 11:27:22;;;;;;;34.87;31.17;;;;;;;5.21;62.75;97742.66;8381272;28;20612;-92
2020/12/01 11:31:46;;;;;;;35.63;31.83;;;;;;;5.34;62.00;97744.00;8403777;28;20210;-95
2020/12/01 11:36:04;;;;;;;34.23;30.63;;;;;;;5.41;62.62;97757.53;8358569;28;20239;-94
2020/12/01 11:41:09;;;;;;;38.47;33.90;;;;;;;5.21;62.44;97740.91;8380546;28;20319;-96
2020/12/01 11:50:26;;;;;;;37.07;32.97;;;;;;;5.16;62.71;97745.34;8352910;28;20313;-89
2020/12/01 11:54:59;;;;;;;35.90;32.00;;;;;;;5.00;63.22;97751.75;8357750;28;20231;-95
2020/12/01 11:59:02;;;;;;;36.07;32.17;;;;;;;4.81;63.54;97748.81;8376833;28;20331;-92
2020/12/01 12:03:18;;;;;;;36.40;32.50;;;;;;;4.98;63.53;97768.91;8384200;28;20228;-89
2020/12/01 12:07:32;;;;;;;36.10;32.30;;;;;;;4.94;63.93;97765.59;8388613;28;20223;-88
2020/12/01 12:11:36;;;;;;;33.77;30.17;;;;;;;5.10;63.72;97755.75;8362811;28;20270;-92
2020/12/01 12:15:40;;;;;;;43.77;35.63;;;;;;;5.01;63.43;97769.69;8333021;28;20243;-86
2020/12/01 12:19:44;;;;;;;38.00;34.03;;;;;;;4.66;65.11;97750.88;8340097;28;20236;-90
2020/12/01 12:23:49;;;;;;;40.60;34.60;;;;;;;4.63;65.16;97756.06;8335049;28;20262;-90
2020/12/01 12:27:52;;;;;;;35.57;31.87;;;;;;;4.93;64.39;97750.22;8335445;28;20197;-86
2020/12/01 12:31:54;;;;;;;37.80;32.63;;;;;;;4.88;64.51;97758.88;8337561;28;20258;-84
2020/12/01 12:36:00;;;;;;;37.47;32.40;;;;;;;4.74;64.87;97749.81;8374883;28;20371;-88
2020/12/01 12:40:32;;;;;;;37.07;33.07;;;;;;;4.82;64.48;97755.63;8361568;28;20229;-94
2020/12/01 12:44:40;;;;;;;38.13;33.30;;;;;;;4.59;65.00;97748.47;8346782;28;20242;-90
2020/12/01 12:48:45;;;;;;;35.43;31.67;;;;;;;4.60;65.46;97758.69;8370461;28;20223;-92
2020/12/01 12:52:52;;;;;;;37.03;33.17;;;;;;;4.70;65.22;97756.75;8364653;28;20232;-91
2020/12/01 12:57:04;;;;;;;36.20;32.30;;;;;;;4.58;65.11;97757.88;8397032;28;20206;-95
2020/12/01 13:01:10;;;;;;;37.43;30.97;;;;;;;4.82;64.32;97753.91;8350510;28;20679;-95
2020/12/01 13:05:15;;;;;;;41.13;33.30;;;;;;;4.65;65.20;97762.00;8339201;28;20236;-94
2020/12/01 13:09:28;;;;;;;36.77;31.73;;;;;;;4.48;65.75;97762.41;8364423;28;20314;-80
2020/12/01 13:13:31;;;;;;;35.87;31.40;;;;;;;4.85;65.07;97776.06;8332837;28;20245;-78
2020/12/01 13:17:33;;;;;;;35.57;31.77;;;;;;;4.53;65.83;97775.09;8361701;28;20667;-80
2020/12/01 13:21:36;;;;;;;37.40;33.40;;;;;;;4.75;65.89;97777.19;8362014;28;20262;-78
2020/12/01 13:25:39;;;;;;;36.30;32.33;;;;;;;5.00;65.16;97779.97;8331397;28;20240;-80
2020/12/01 13:29:42;;;;;;;44.20;36.97;;;;;;;5.01;65.23;97784.25;8361274;28;20277;-78
2020/12/01 13:33:44;;;;;;;37.37;33.07;;;;;;;4.82;65.43;97769.28;8330724;28;20262;-78
2020/12/01 13:37:47;;;;;;;37.60;33.53;;;;;;;4.92;65.46;97780.19;8329471;28;20208;-79
2020/12/01 13:41:49;;;;;;;41.87;34.03;;;;;;;4.79;65.49;97789.88;8328559;28;20289;-79
2020/12/01 13:45:53;;;;;;;40.10;34.37;;;;;;;4.92;65.22;97785.31;8328828;28;20232;-79
2020/12/01 13:49:56;;;;;;;38.23;33.93;;;;;;;5.01;65.18;97781.69;8329530;28;20216;-80
2020/12/01 13:53:58;;;;;;;41.07;34.90;;;;;;;4.58;66.42;97803.22;8337580;28;20697;-77
2020/12/01 13:58:00;;;;;;;39.10;33.43;;;;;;;4.75;65.87;97805.41;8330875;28;20181;-80
2020/12/01 14:02:03;;;;;;;36.83;32.07;;;;;;;4.70;65.76;97811.50;8341064;28;20262;-78
2020/12/01 14:06:06;;;;;;;38.67;33.40;;;;;;;4.82;65.72;97810.34;8333171;28;20224;-80
2020/12/01 14:10:08;;;;;;;38.40;32.40;;;;;;;4.87;65.26;97810.22;8358292;28;20204;-81
2020/12/01 14:14:10;;;;;;;36.30;30.83;;;;;;;4.70;66.21;97811.50;8336836;28;20262;-80
2020/12/01 14:18:15;;;;;;;44.13;35.63;;;;;;;4.60;66.26;97809.16;8327486;28;20284;-79
2020/12/01 14:22:17;;;;;;;41.03;33.40;;;;;;;4.65;66.09;97812.47;8346689;28;20271;-79
2020/12/01 14:26:19;;;;;;;35.43;30.53;;;;;;;4.75;65.57;97815.66;8336762;28;20563;-79
2020/12/01 14:30:23;;;;;;;39.87;32.40;;;;;;;4.51;66.31;97828.16;8355893;28;20207;-79
2020/12/01 14:34:26;;;;;;;41.33;34.53;;;;;;;4.69;65.48;97837.16;8335033;28;20236;-80
2020/12/01 14:38:43;;;;;;;38.80;34.40;;;;;;;4.68;66.15;97825.22;8346164;28;20204;-95
2020/12/01 14:42:50;;;;;;;38.23;31.57;;;;;;;4.62;65.79;97831.31;8350019;28;20602;-96
2020/12/01 14:47:18;;;;;;;42.73;33.83;;;;;;;4.45;66.37;97831.69;8366203;28;20211;-92
2020/12/01 14:51:49;;;;;;;38.97;34.70;;;;;;;4.44;66.46;97845.41;8366186;28;20228;-92
2020/12/01 14:56:22;;;;;;;48.63;40.10;;;;;;;4.30;66.80;97838.03;8358666;28;20294;-96
2020/12/01 15:00:32;;;;;;;56.03;44.50;;;;;;;4.53;66.18;97844.34;8351597;28;20339;-95
2020/12/01 15:05:15;;;;;;;59.47;47.23;;;;;;;4.25;66.45;97844.13;8352188;28;20223;-89
2020/12/01 15:09:44;;;;;;;54.87;43.03;;;;;;;4.47;66.63;97855.59;8320156;28;20234;-91
2020/12/01 15:13:50;;;;;;;41.67;36.27;;;;;;;4.61;66.24;97870.69;8341944;28;20273;-89
2020/12/01 15:17:55;;;;;;;40.67;32.37;;;;;;;4.29;66.71;97861.13;8393807;28;20198;-89
2020/12/01 15:22:01;;;;;;;43.30;35.33;;;;;;;4.45;66.65;97864.19;8385111;28;20663;-92
2020/12/01 15:26:07;;;;;;;40.20;33.93;;;;;;;4.27;66.48;97868.00;8373384;28;20223;-92
2020/12/01 15:30:14;;;;;;;41.93;32.27;;;;;;;4.08;67.14;97870.09;8350408;28;20196;-94
2020/12/01 15:34:17;;;;;;;38.17;30.07;;;;;;;4.40;66.72;97866.88;8365924;28;20232;-89
2020/12/01 15:38:21;;;;;;;32.93;29.37;;;;;;;4.34;66.39;97868.69;8337740;28;20204;-94
2020/12/01 15:43:09;;;;;;;;;;;;;;;;;;;;;
2020/12/01 15:47:30;;;;;;;34.90;30.80;;;;;;;4.15;66.97;97875.91;8363599;28;20200;-96
2020/12/01 15:51:53;;;;;;;35.47;30.43;;;;;;;4.16;67.29;97880.19;8355861;28;20200;-92
2020/12/01 15:56:20;;;;;;;37.33;30.07;;;;;;;4.11;67.61;97893.94;8362854;28;20303;-92
2020/12/01 16:00:48;;;;;;;40.33;32.33;;;;;;;4.05;67.90;97894.03;8349279;28;20244;-94
2020/12/01 16:05:27;;;;;;;44.00;33.97;;;;;;;4.16;66.97;97891.28;8341027;28;20229;-94
2020/12/01 16:09:44;;;;;;;40.17;32.63;;;;;;;3.87;67.92;97902.94;8354107;28;20610;-92
2020/12/01 16:14:18;;;;;;;34.80;30.63;;;;;;;4.04;67.46;97891.53;8337951;28;20521;-95
2020/12/01 16:18:33;;;;;;;37.30;33.13;;;;;;;3.94;68.33;97906.25;8352688;28;20200;-96
2020/12/01 16:23:02;;;;;;;36.37;32.30;;;;;;;3.83;68.19;97903.03;8362830;28;20220;-95
2020/12/01 16:27:12;;;;;;;37.43;32.93;;;;;;;3.82;68.48;97904.72;8347540;28;20284;-96
2020/12/01 16:31:18;;;;;;;35.97;31.57;;;;;;;3.86;68.52;97906.34;8359711;28;20212;-90
2020/12/01 16:35:22;;;;;;;36.70;32.03;;;;;;;3.87;68.33;97909.78;8365123;28;20273;-90
2020/12/01 16:39:32;;;;;;;38.43;32.63;;;;;;;3.85;68.17;97914.09;8392843;28;20269;-89
2020/12/01 16:44:09;;;;;;;39.67;33.30;;;;;;;3.66;69.20;97928.94;8388490;28;20677;-90
2020/12/01 16:48:23;;;;;;;37.53;32.83;;;;;;;3.66;68.90;97916.13;8349338;28;20599;-91
2020/12/01 16:52:33;;;;;;;40.50;33.60;;;;;;;3.98;68.16;97920.69;8364873;28;20212;-93
2020/12/01 16:56:59;;;;;;;58.37;47.33;;;;;;;3.86;68.25;97931.97;8366406;28;20211;-90
2020/12/01 17:01:39;;;;;;;40.67;35.87;;;;;;;3.86;68.44;97924.28;8367713;28;20566;-92
2020/12/01 17:06:15;;;;;;;;;;;;;;;;;;;;;
2020/12/01 17:31:26;;;;;;;63.97;50.90;;;;;;;4.02;67.95;97950.50;8375784;28;20205;-94
2020/12/01 17:40:47;;;;;;;43.00;36.17;;;;;;;3.98;67.89;97961.69;8301790;28;20236;-96
2020/12/01 17:45:30;;;;;;;41.17;34.47;;;;;;;4.18;67.39;97986.09;8366726;28;20230;-96
2020/12/01 17:50:24;;;;;;;40.50;34.27;;;;;;;4.20;67.12;97985.19;8383860;22;20323;-96
2020/12/01 17:54:52;;;;;;;42.53;34.70;;;;;;;4.22;67.19;97987.72;8310608;28;20230;-96
2020/12/01 17:59:20;;;;;;;;;;;;;;;;;;;;;
2020/12/01 18:04:10;;;;;;;40.77;35.60;;;;;;;4.24;66.76;97985.97;8313876;28;20253;-96
2020/12/01 18:09:24;;;;;;;42.20;36.30;;;;;;;4.31;66.48;98005.50;8243418;28;20230;-94
2020/12/01 18:14:28;;;;;;;41.20;36.80;;;;;;;4.38;67.82;98006.22;8283616;28;20242;-89
2020/12/01 18:18:39;;;;;;;40.10;35.37;;;;;;;4.41;66.67;98011.31;8276928;28;20212;-90
2020/12/01 18:22:56;;;;;;;47.17;41.03;;;;;;;4.37;66.93;98014.81;8288451;28;20253;-90
2020/12/01 18:27:09;;;;;;;41.30;36.80;;;;;;;4.21;67.26;98009.97;8298328;28;20631;-90
2020/12/01 18:31:17;;;;;;;39.80;35.53;;;;;;;4.07;67.41;98010.22;8293964;28;20218;-90
2020/12/01 18:35:23;;;;;;;41.50;37.00;;;;;;;3.85;67.98;98025.09;8267288;28;20317;-90
2020/12/01 18:39:42;;;;;;;39.93;35.67;;;;;;;4.14;67.21;98025.47;8281897;28;20601;-90
2020/12/01 18:43:54;;;;;;;36.63;32.73;;;;;;;4.07;67.59;98023.03;8289632;28;20656;-91
2020/12/01 18:47:57;;;;;;;37.83;33.60;;;;;;;4.06;67.43;98030.72;8285793;28;20679;-88
2020/12/01 18:52:01;;;;;;;39.37;34.47;;;;;;;3.78;67.88;98020.94;8282972;28;20348;-89
2020/12/01 18:56:04;;;;;;;40.90;36.60;;;;;;;3.95;67.81;98030.91;8288831;28;20237;-90
2020/12/01 19:00:10;;;;;;;37.97;33.10;;;;;;;3.91;67.42;98032.66;8298845;28;20237;-90
2020/12/01 19:04:22;;;;;;;41.63;34.50;;;;;;;3.69;68.33;98050.13;8269911;28;20408;-90
2020/12/01 19:08:27;;;;;;;38.57;33.93;;;;;;;3.95;67.23;98037.75;8278027;28;20201;-89
2020/12/01 19:12:32;;;;;;;45.97;39.43;;;;;;;4.06;67.61;98023.03;8303464;28;20251;-87
2020/12/01 19:16:34;;;;;;;39.93;35.63;;;;;;;3.96;67.12;98040.28;8281511;28;20276;-83
2020/12/01 19:20:38;;;;;;;39.20;33.63;;;;;;;3.89;67.10;98044.66;8292173;28;20739;-88
2020/12/01 19:24:42;;;;;;;38.17;33.77;;;;;;;4.01;67.17;98048.72;8284541;28;20238;-89
2020/12/01 19:28:48;;;;;;;42.10;36.80;;;;;;;3.98;67.07;98047.94;8327661;28;20197;-90
2020/12/01 19:33:04;;;;;;;37.70;32.23;;;;;;;3.95;66.84;98060.81;8311839;28;20236;-91
2020/12/01 19:37:10;;;;;;;35.77;31.87;;;;;;;3.76;67.51;98062.81;8296260;28;20210;-92
2020/12/01 19:41:23;;;;;;;36.73;31.90;;;;;;;3.74;66.78;98067.97;8306097;28;20237;-92
2020/12/01 19:45:26;;;;;;;33.77;29.73;;;;;;;3.57;67.70;98070.78;8304790;28;20241;-95
2020/12/01 19:49:36;;;;;;;38.60;34.43;;;;;;;3.50;67.86;98075.16;8275175;28;20233;-93
2020/12/01 19:53:44;;;;;;;33.40;29.90;;;;;;;3.37;67.86;98073.63;8281621;28;20332;-90
2020/12/01 19:57:49;;;;;;;33.80;30.10;;;;;;;3.45;67.92;98070.97;8294097;28;20336;-92
2020/12/01 20:01:53;;;;;;;35.37;30.23;;;;;;;3.21;68.53;98078.09;8292800;28;20230;-93
2020/12/01 20:05:55;;;;;;;34.57;30.87;;;;;;;3.32;68.50;98070.28;8279098;28;20275;-90
2020/12/01 20:09:58;;;;;;;32.23;28.73;;;;;;;3.16;68.46;98071.34;8297249;28;20197;-88
2020/12/01 20:14:07;;;;;;;33.00;29.30;;;;;;;2.87;69.59;98083.63;8288936;28;20312;-88
2020/12/01 20:18:10;;;;;;;30.50;27.20;;;;;;;3.28;68.61;98087.38;8281133;28;20197;-87
2020/12/01 20:22:13;;;;;;;32.30;27.47;;;;;;;3.11;68.59;98076.53;8280307;28;20591;-87
2020/12/01 20:26:16;;;;;;;30.23;26.90;;;;;;;3.04;69.21;98092.81;8277102;28;20591;-86
2020/12/01 20:30:29;;;;;;;31.43;28.03;;;;;;;2.87;70.04;98093.84;8281264;28;20268;-84
2020/12/01 20:34:31;;;;;;;29.33;26.13;;;;;;;2.72;69.54;98081.22;8280561;28;20287;-85